Lanty, Arkansas
Current Conditions -  °F | °C
As of 4:53 AM on Friday 19 Dec 2014 (Local Time) from KRUE Reporting Station
Overcast Overcast  
Wind Chill:   Ceiling: 600
Heat Index:   Visibility: 9mi
Dew Point:   Wind: 5mph
Humidity: 89%   Direction: 120°ESE
Pressure: 30.22"   Gusts: NA
Location:  35.227°N, 92.6879°W
Report Text: KRUE 191053Z AUTO 12004KT 9SM OVC006 05/03 A3022 RMK AO2 SLP230 T00500033
Loading
Personal Weather Stations






























Interactive Weather Map New forecast layout! Learn more

10-Day Weather Forecast

Advertisements
Track Severe Weather on mobile